Weather at N'Gaoundéré Airport

Public forecast

Using degrees Celsius for public forecast. Weather courtesy of forecast.io.

Current aviation weather report (METAR) for N'Gaoundéré Airport

Report is more than 6 hours old.

Retrieved 2020/10/28 03:00 UTC (17 hours ago):

FKKN 280300Z 00000KT 9999 SCT016 16/15 Q1014

Aviation forecast (TAF) for N'Gaoundéré Airport

Forecast is more than 12 hours old.

Retrieved 2020/01/06 12:21 UTC (10 months ago):

TAF FKKN 061100Z 0612/0624 34007KT 2000 DU NSC TEMPO 0618/0624 1000 HZ